Time;durP1;ratioP1;P1;durP2;ratioP2;P2;SDS_P1;SDS_P2;PMS_P1;PMS_P2;Temp;Humidity;BMP_temperature;BMP_pressure;BME280_temperature;BME280_humidity;BME280_pressure;Samples;Min_cycle;Max_cycle;Signal;HPM_P1;HPM_P2
2022/06/08 00:02:05;0.00;0.00;0.62;0.00;0.00;0.62;1.93;1.37;;;25.70;30.60;;;;;;2271555;60;20778;-54
2022/06/08 00:04:51;0.00;0.00;0.62;0.00;0.00;0.62;1.80;1.10;;;25.70;31.20;;;;;;2272700;60;20377;-52
2022/06/08 00:07:36;0.00;0.00;0.62;0.00;0.00;0.62;1.87;1.60;;;25.80;30.50;;;;;;2272260;60;20922;-50
2022/06/08 00:10:21;0.00;0.00;0.62;0.00;0.00;0.62;1.73;1.23;;;25.80;30.50;;;;;;2271695;60;20460;-46
2022/06/08 00:13:06;0.00;0.00;0.62;0.00;0.00;0.62;1.60;1.07;;;25.80;30.50;;;;;;2272666;60;20370;-49
2022/06/08 00:15:53;0.00;0.00;0.62;0.00;0.00;0.62;1.73;1.30;;;25.90;30.60;;;;;;2271793;60;20489;-48
2022/06/08 00:18:40;0.00;0.00;0.62;0.00;0.00;0.62;2.10;1.50;;;25.90;30.60;;;;;;2271749;60;20382;-54
2022/06/08 00:21:26;0.00;0.00;0.62;0.00;0.00;0.62;2.07;1.30;;;25.90;30.60;;;;;;2271676;60;20472;-47
2022/06/08 00:24:11;0.00;0.00;0.62;0.00;0.00;0.62;2.03;1.50;;;26.00;30.70;;;;;;2272078;60;20872;-50
2022/06/08 00:26:56;0.00;0.00;0.62;0.00;0.00;0.62;1.63;1.43;;;26.00;30.70;;;;;;2272518;61;20917;-47
2022/06/08 00:29:42;0.00;0.00;0.62;0.00;0.00;0.62;1.80;1.40;;;26.00;30.70;;;;;;2272103;61;20358;-49
2022/06/08 00:32:27;0.00;0.00;0.62;0.00;0.00;0.62;1.60;1.10;;;26.00;30.70;;;;;;2271561;61;20420;-50
2022/06/08 00:35:12;0.00;0.00;0.62;0.00;0.00;0.62;1.40;1.10;;;26.10;30.70;;;;;;2272275;61;20874;-54
2022/06/08 00:37:59;0.00;0.00;0.62;0.00;0.00;0.62;3.13;1.20;;;26.00;30.50;;;;;;2271679;60;20429;-52
2022/06/08 00:41:01;0.00;0.00;0.62;0.00;0.00;0.62;1.70;1.43;;;26.10;30.50;;;;;;2271468;60;20939;-54
2022/06/08 00:43:46;0.00;0.00;0.62;0.00;0.00;0.62;1.80;1.40;;;26.10;30.50;;;;;;2272018;60;20420;-55
2022/06/08 00:46:31;0.00;0.00;0.62;0.00;0.00;0.62;3.20;1.60;;;26.10;30.50;;;;;;2271660;60;20918;-54
2022/06/08 00:49:23;0.00;0.00;0.62;0.00;0.00;0.62;2.27;1.60;;;26.10;30.70;;;;;;2271699;60;20358;-56
2022/06/08 00:52:08;0.00;0.00;0.62;0.00;0.00;0.62;1.70;1.40;;;26.10;30.60;;;;;;2271184;61;20411;-53
2022/06/08 00:54:59;0.00;0.00;0.62;0.00;0.00;0.62;2.10;1.40;;;26.10;30.60;;;;;;2271424;61;20416;-54
2022/06/08 00:57:48;0.00;0.00;0.62;0.00;0.00;0.62;1.70;1.10;;;26.10;30.50;;;;;;2271936;61;20386;-58
2022/06/08 01:00:37;0.00;0.00;0.62;0.00;0.00;0.62;1.87;1.40;;;26.10;30.50;;;;;;2270886;61;20358;-54
2022/06/08 01:03:22;0.00;0.00;0.62;0.00;0.00;0.62;1.97;1.47;;;26.10;30.40;;;;;;2271671;61;20421;-53
2022/06/08 01:06:17;0.00;0.00;0.62;0.00;0.00;0.62;1.53;1.27;;;26.10;30.40;;;;;;2271542;61;20439;-57
2022/06/08 01:09:03;0.00;0.00;0.62;0.00;0.00;0.62;1.80;1.40;;;26.10;30.30;;;;;;2270903;61;20350;-58
2022/06/08 01:11:50;0.00;0.00;0.62;0.00;0.00;0.62;1.80;1.30;;;26.20;30.30;;;;;;2271703;61;20874;-54
2022/06/08 01:14:37;0.00;0.00;0.62;0.00;0.00;0.62;1.80;1.37;;;26.20;30.30;;;;;;2271464;61;20366;-54
2022/06/08 01:17:22;0.00;0.00;0.62;0.00;0.00;0.62;1.93;1.37;;;26.20;30.30;;;;;;2268036;61;20417;-57
2022/06/08 01:20:13;0.00;0.00;0.62;0.00;0.00;0.62;2.27;1.30;;;26.20;30.30;;;;;;2272033;61;20581;-55
2022/06/08 01:23:00;0.00;0.00;0.62;0.00;0.00;0.62;2.33;1.20;;;26.20;30.20;;;;;;2271182;61;20937;-62
2022/06/08 01:26:14;0.00;0.00;0.62;0.00;0.00;0.62;1.50;1.20;;;26.30;30.30;;;;;;2272272;61;20929;-57
2022/06/08 01:29:06;0.00;0.00;0.62;0.00;0.00;0.62;1.93;1.30;;;26.30;30.30;;;;;;2271075;61;20408;-57
2022/06/08 01:32:03;0.00;0.00;0.62;0.00;0.00;0.62;1.87;1.43;;;26.30;30.30;;;;;;2267358;61;20343;-61
2022/06/08 01:35:04;0.00;0.00;0.62;0.00;0.00;0.62;1.53;1.17;;;26.30;30.20;;;;;;2272117;61;20397;-57
2022/06/08 01:38:04;0.00;0.00;0.62;0.00;0.00;0.62;1.40;1.10;;;26.30;30.20;;;;;;2270925;61;20386;-58
2022/06/08 01:41:18;0.00;0.00;0.62;0.00;0.00;0.62;1.70;1.40;;;26.30;30.10;;;;;;2271833;61;20937;-53
2022/06/08 01:44:18;0.00;0.00;0.62;0.00;0.00;0.62;1.67;1.17;;;26.30;30.10;;;;;;2271788;61;20373;-50
2022/06/08 01:47:10;0.00;0.00;0.62;0.00;0.00;0.62;2.10;1.40;;;26.40;30.20;;;;;;2271651;60;20435;-58
2022/06/08 01:50:01;0.00;0.00;0.62;0.00;0.00;0.62;1.87;1.20;;;26.40;30.20;;;;;;2272771;61;20416;-58
2022/06/08 01:52:59;0.00;0.00;0.62;0.00;0.00;0.62;1.50;1.03;;;26.40;30.20;;;;;;2272129;61;20432;-55
2022/06/08 01:55:50;0.00;0.00;0.62;0.00;0.00;0.62;1.60;1.40;;;26.40;30.10;;;;;;2272327;61;20366;-57
2022/06/08 01:58:47;0.00;0.00;0.62;0.00;0.00;0.62;1.70;1.43;;;26.40;30.10;;;;;;2271996;61;20921;-56
2022/06/08 02:01:42;0.00;0.00;0.62;0.00;0.00;0.62;2.17;1.20;;;26.40;30.10;;;;;;2271358;61;20429;-55
2022/06/08 02:04:38;0.00;0.00;0.62;0.00;0.00;0.62;2.00;1.30;;;26.40;30.10;;;;;;2272163;61;20769;-57
2022/06/08 02:07:35;0.00;0.00;0.62;0.00;0.00;0.62;2.30;1.40;;;26.50;30.10;;;;;;2271894;61;20432;-52
2022/06/08 02:10:32;0.00;0.00;0.62;0.00;0.00;0.62;1.63;1.40;;;26.50;30.10;;;;;;2271873;61;20770;-57
2022/06/08 02:13:26;0.00;0.00;0.62;0.00;0.00;0.62;1.43;1.03;;;26.50;30.10;;;;;;2271999;61;20882;-52
2022/06/08 02:16:17;0.00;0.00;0.62;0.00;0.00;0.62;1.80;1.20;;;26.50;30.80;;;;;;2271533;61;20386;-55
2022/06/08 02:19:11;0.00;0.00;0.62;0.00;0.00;0.62;2.23;1.43;;;26.50;30.10;;;;;;2272182;61;20386;-58
2022/06/08 02:22:04;0.00;0.00;0.62;0.00;0.00;0.62;1.83;1.43;;;26.50;30.00;;;;;;2271189;61;20354;-53
2022/06/08 02:24:54;0.00;0.00;0.62;0.00;0.00;0.62;1.57;1.10;;;26.50;30.00;;;;;;2272427;61;20382;-57
2022/06/08 02:27:44;0.00;0.00;0.62;0.00;0.00;0.62;2.60;1.50;;;26.50;30.00;;;;;;2271692;61;20790;-56
2022/06/08 02:30:37;0.00;0.00;0.62;0.00;0.00;0.62;1.83;1.40;;;26.50;30.00;;;;;;2271019;61;20403;-56
2022/06/08 02:36:39;0.00;0.00;0.62;0.00;0.00;0.62;1.80;1.50;;;26.50;30.00;;;;;;2271937;61;20399;-57
2022/06/08 02:39:28;0.00;0.00;0.62;0.00;0.00;0.62;2.13;1.40;;;26.50;30.00;;;;;;2272622;61;20370;-55
2022/06/08 02:42:19;0.00;0.00;0.62;0.00;0.00;0.62;1.90;1.40;;;26.50;30.00;;;;;;2271491;61;20358;-59
2022/06/08 02:45:11;0.00;0.00;0.62;0.00;0.00;0.62;1.90;1.47;;;26.50;30.00;;;;;;2271624;61;20411;-55
2022/06/08 02:48:03;0.00;0.00;0.62;0.00;0.00;0.62;1.77;1.47;;;26.50;30.00;;;;;;2272096;61;20386;-55
2022/06/08 02:50:54;0.00;0.00;0.62;0.00;0.00;0.62;2.10;1.50;;;26.50;30.00;;;;;;2271486;61;20787;-56
2022/06/08 02:54:00;0.00;0.00;0.62;0.00;0.00;0.62;1.87;1.40;;;26.60;30.10;;;;;;2271568;61;20405;-60
2022/06/08 02:56:57;0.00;0.00;0.62;0.00;0.00;0.62;2.50;2.00;;;26.50;30.00;;;;;;2271770;61;20393;-55
2022/06/08 02:59:51;0.00;0.00;0.62;0.00;0.00;0.62;2.77;1.80;;;26.50;30.00;;;;;;2271234;61;20357;-56
2022/06/08 03:02:45;0.00;0.00;0.62;0.00;0.00;0.62;2.43;2.07;;;26.50;30.10;;;;;;2271538;61;20362;-51
2022/06/08 03:05:39;0.00;0.00;0.62;0.00;0.00;0.62;2.13;1.50;;;26.50;30.20;;;;;;2271699;61;20908;-55
2022/06/08 03:08:30;0.00;0.00;0.62;0.00;0.00;0.62;2.60;2.27;;;26.50;30.20;;;;;;2271290;61;20358;-57
2022/06/08 03:11:18;0.00;0.00;0.62;0.00;0.00;0.62;2.67;2.20;;;26.50;30.30;;;;;;2271733;61;20848;-56
2022/06/08 03:14:09;0.00;0.00;0.62;0.00;0.00;0.62;2.10;1.90;;;26.40;30.30;;;;;;2271462;61;20367;-56
2022/06/08 03:16:59;0.00;0.00;0.62;0.00;0.00;0.62;2.60;2.10;;;26.40;30.50;;;;;;2271948;61;20504;-59
2022/06/08 03:19:44;0.00;0.00;0.62;0.00;0.00;0.62;2.50;2.03;;;26.40;30.90;;;;;;2271682;61;20363;-56
2022/06/08 03:22:31;0.00;0.00;0.62;0.00;0.00;0.62;2.30;2.10;;;26.30;30.90;;;;;;2270541;61;20362;-63
2022/06/08 03:25:18;0.00;0.00;0.62;0.00;0.00;0.62;2.17;1.90;;;26.30;30.90;;;;;;2272161;61;20367;-57
2022/06/08 03:28:05;0.00;0.00;0.62;0.00;0.00;0.62;2.40;2.20;;;26.20;30.90;;;;;;2271668;61;20358;-57
2022/06/08 03:30:50;0.00;0.00;0.62;0.00;0.00;0.62;2.33;2.13;;;26.20;30.80;;;;;;2271160;61;20678;-58
2022/06/08 03:33:34;0.00;0.00;0.62;0.00;0.00;0.62;2.03;1.87;;;26.20;30.80;;;;;;2272076;61;20361;-54
2022/06/08 03:36:20;0.00;0.00;0.62;0.00;0.00;0.62;2.90;2.30;;;26.10;30.90;;;;;;2271403;61;20816;-54
2022/06/08 03:39:07;0.00;0.00;0.62;0.00;0.00;0.62;2.67;2.37;;;26.10;31.10;;;;;;2271934;61;20394;-54
2022/06/08 03:41:53;0.00;0.00;0.62;0.00;0.00;0.62;4.40;3.03;;;26.10;31.30;;;;;;2271223;61;20362;-58
2022/06/08 03:44:38;0.00;0.00;0.62;0.00;0.00;0.62;3.20;2.80;;;26.10;31.50;;;;;;2271299;61;20840;-57
2022/06/08 03:47:27;0.00;0.00;0.62;0.00;0.00;0.62;3.03;2.73;;;26.00;31.70;;;;;;2271914;61;20784;-56
2022/06/08 03:50:18;0.00;0.00;0.62;0.00;0.00;0.62;3.40;3.10;;;25.90;31.90;;;;;;2271835;61;20370;-54
2022/06/08 03:53:09;0.00;0.00;0.62;0.00;0.00;0.62;3.30;2.50;;;25.90;32.10;;;;;;2271868;61;20779;-57
2022/06/08 03:55:57;0.00;0.00;0.62;0.00;0.00;0.62;3.00;2.57;;;25.80;32.10;;;;;;2272233;61;20436;-54
2022/06/08 03:58:43;0.00;0.00;0.62;0.00;0.00;0.62;3.87;2.90;;;25.80;32.20;;;;;;2271674;61;21218;-56
2022/06/08 04:01:33;0.00;0.00;0.62;0.00;0.00;0.62;2.97;2.40;;;25.70;32.50;;;;;;2271641;61;20406;-56
2022/06/08 04:04:20;0.00;0.00;0.62;0.00;0.00;0.62;2.60;2.40;;;25.70;32.60;;;;;;2271517;61;20500;-58
2022/06/08 04:07:06;0.00;0.00;0.62;0.00;0.00;0.62;3.00;2.70;;;25.70;32.60;;;;;;2271319;61;20470;-57
2022/06/08 04:09:55;0.00;0.00;0.62;0.00;0.00;0.62;2.80;2.60;;;25.70;32.80;;;;;;2271810;60;20366;-56
2022/06/08 04:12:41;0.00;0.00;0.62;0.00;0.00;0.62;3.50;2.70;;;25.70;32.80;;;;;;2270959;61;20783;-57
2022/06/08 04:15:41;0.00;0.00;0.62;0.00;0.00;0.62;3.20;2.90;;;25.60;32.70;;;;;;2271571;61;20371;-55
2022/06/08 04:18:28;0.00;0.00;0.62;0.00;0.00;0.62;4.00;2.83;;;25.60;32.80;;;;;;2271495;61;20825;-58
2022/06/08 04:21:17;0.00;0.00;0.62;0.00;0.00;0.62;4.13;3.13;;;25.60;33.00;;;;;;2271435;61;20386;-52
2022/06/08 04:24:23;0.00;0.00;0.62;0.00;0.00;0.62;4.13;3.30;;;25.50;33.10;;;;;;2272679;61;20377;-53
2022/06/08 04:27:13;0.00;0.00;0.62;0.00;0.00;0.62;4.80;3.27;;;25.50;33.30;;;;;;2271465;61;20496;-55
2022/06/08 04:30:04;0.00;0.00;0.62;0.00;0.00;0.62;3.77;3.30;;;25.50;33.40;;;;;;2271280;61;20358;-58
2022/06/08 04:32:49;0.00;0.00;0.62;0.00;0.00;0.62;3.43;3.10;;;25.40;33.40;;;;;;2271766;61;21000;-56
2022/06/08 04:35:35;0.00;0.00;0.62;0.00;0.00;0.62;3.53;3.10;;;25.40;33.70;;;;;;2271274;61;20394;-54
2022/06/08 04:38:21;0.00;0.00;0.62;0.00;0.00;0.62;3.60;3.10;;;25.30;33.60;;;;;;2271740;61;20404;-57
2022/06/08 04:41:07;0.00;0.00;0.62;0.00;0.00;0.62;3.60;3.13;;;25.20;33.80;;;;;;2271012;61;20366;-57
2022/06/08 04:43:53;0.00;0.00;0.62;0.00;0.00;0.62;6.10;4.10;;;25.20;33.90;;;;;;2270742;61;20362;-52
2022/06/08 04:46:40;0.00;0.00;0.62;0.00;0.00;0.62;4.30;3.90;;;25.20;33.90;;;;;;2271947;61;21016;-50
2022/06/08 04:49:31;0.00;0.00;0.62;0.00;0.00;0.62;5.13;4.20;;;25.10;34.00;;;;;;2271219;61;20779;-55
2022/06/08 04:52:17;0.00;0.00;0.62;0.00;0.00;0.62;4.73;4.30;;;25.10;34.20;;;;;;2271353;61;20412;-56
2022/06/08 04:55:04;0.00;0.00;0.62;0.00;0.00;0.62;4.27;3.30;;;25.00;34.30;;;;;;2271852;61;20465;-57
2022/06/08 04:57:49;0.00;0.00;0.62;0.00;0.00;0.62;6.67;4.23;;;25.00;34.50;;;;;;2270844;61;20428;-53
2022/06/08 05:00:34;0.00;0.00;0.62;0.00;0.00;0.62;4.90;4.37;;;25.00;34.60;;;;;;2271370;61;20944;-53
2022/06/08 05:03:23;0.00;0.00;0.62;0.00;0.00;0.62;6.47;4.40;;;25.00;34.70;;;;;;2271426;61;20370;-58
2022/06/08 05:06:08;0.00;0.00;0.62;0.00;0.00;0.62;4.73;4.00;;;24.90;34.70;;;;;;2270967;61;20440;-56
2022/06/08 05:08:54;0.00;0.00;0.62;0.00;0.00;0.62;4.40;3.20;;;24.90;34.90;;;;;;2272125;61;20455;-54
2022/06/08 05:11:42;0.00;0.00;0.62;0.00;0.00;0.62;4.10;3.70;;;24.90;34.80;;;;;;2271022;61;20366;-55
2022/06/08 05:14:28;0.00;0.00;0.62;0.00;0.00;0.62;3.93;3.53;;;24.90;34.70;;;;;;2271449;61;20362;-56
2022/06/08 05:17:15;0.00;0.00;0.62;0.00;0.00;0.62;3.07;2.43;;;25.00;34.90;;;;;;2271804;61;20393;-56
2022/06/08 05:20:02;0.00;0.00;0.62;0.00;0.00;0.62;3.47;3.03;;;24.90;34.70;;;;;;2271397;61;20898;-55
2022/06/08 05:22:49;0.00;0.00;0.62;0.00;0.00;0.62;2.90;2.60;;;24.90;34.60;;;;;;2271670;60;20881;-53
2022/06/08 05:25:38;0.00;0.00;0.62;0.00;0.00;0.62;3.20;2.90;;;25.00;34.70;;;;;;2272275;61;20454;-56
2022/06/08 05:28:24;0.00;0.00;0.62;0.00;0.00;0.62;2.50;2.30;;;25.10;34.60;;;;;;2271345;61;20889;-54
2022/06/08 05:31:13;0.00;0.00;0.62;0.00;0.00;0.62;2.87;2.67;;;25.10;34.60;;;;;;2271825;61;20370;-56
2022/06/08 05:34:00;0.00;0.00;0.62;0.00;0.00;0.62;9.63;4.20;;;25.10;34.50;;;;;;2272202;61;20442;-55
2022/06/08 05:36:47;0.00;0.00;0.62;0.00;0.00;0.62;5.73;4.90;;;25.10;34.50;;;;;;2272263;61;20386;-54
2022/06/08 05:39:38;0.00;0.00;0.62;0.00;0.00;0.62;7.33;5.03;;;25.20;34.60;;;;;;2271961;61;20370;-61
2022/06/08 05:42:23;0.00;0.00;0.62;0.00;0.00;0.62;6.30;5.70;;;25.20;34.70;;;;;;2271424;61;20362;-56
2022/06/08 05:45:17;0.00;0.00;0.62;0.00;0.00;0.62;8.00;6.13;;;25.20;34.90;;;;;;2272346;61;20359;-52
2022/06/08 05:48:04;0.00;0.00;0.62;0.00;0.00;0.62;6.20;5.40;;;25.20;35.00;;;;;;2272400;61;20890;-54
2022/06/08 05:50:51;0.00;0.00;0.62;0.00;0.00;0.62;8.73;6.80;;;25.20;35.10;;;;;;2270849;61;20775;-55
2022/06/08 05:53:41;0.00;0.00;0.62;0.00;0.00;0.62;8.00;6.60;;;25.20;35.20;;;;;;2272563;61;20407;-57
2022/06/08 05:56:26;0.00;0.00;0.62;0.00;0.00;0.62;6.70;5.67;;;25.10;35.10;;;;;;2271782;61;20386;-56
2022/06/08 05:59:11;0.00;0.00;0.62;0.00;0.00;0.62;6.47;5.60;;;25.10;35.30;;;;;;2272014;61;20405;-52
2022/06/08 06:01:59;0.00;0.00;0.62;0.00;0.00;0.62;7.40;5.63;;;25.10;35.40;;;;;;2268842;61;20370;-57
2022/06/08 06:04:45;0.00;0.00;0.62;0.00;0.00;0.62;6.97;5.00;;;25.10;35.40;;;;;;2271624;61;20384;-56
2022/06/08 06:07:30;0.00;0.00;0.62;0.00;0.00;0.62;5.67;5.17;;;25.10;35.50;;;;;;2272572;61;20374;-58
2022/06/08 06:10:41;0.00;0.00;0.62;0.00;0.00;0.62;7.63;5.93;;;25.10;35.50;;;;;;2271746;61;20566;-60
2022/06/08 06:13:26;0.00;0.00;0.62;0.00;0.00;0.62;8.07;5.43;;;25.10;35.70;;;;;;2271357;61;20451;-58
2022/06/08 06:16:13;0.00;0.00;0.62;0.00;0.00;0.62;6.60;6.00;;;25.10;35.60;;;;;;2272470;61;20386;-54
2022/06/08 06:18:59;0.00;0.00;0.62;0.00;0.00;0.62;6.80;6.07;;;25.10;35.80;;;;;;2271517;61;20433;-58
2022/06/08 06:21:52;0.00;0.00;0.62;0.00;0.00;0.62;6.20;5.60;;;25.10;35.90;;;;;;2272304;61;20370;-57
2022/06/08 06:24:56;0.00;0.00;0.62;0.00;0.00;0.62;6.50;5.90;;;25.10;35.90;;;;;;2272209;61;20357;-56
2022/06/08 06:28:02;0.00;0.00;0.62;0.00;0.00;0.62;5.87;5.37;;;25.10;36.00;;;;;;2269247;61;20915;-56
2022/06/08 06:31:07;0.00;0.00;0.62;0.00;0.00;0.62;6.70;5.33;;;25.10;36.10;;;;;;2271291;61;20440;-60
2022/06/08 06:34:19;0.00;0.00;0.62;0.00;0.00;0.62;4.73;4.33;;;25.00;36.70;;;;;;2269892;60;20358;-55
2022/06/08 06:37:07;0.00;0.00;0.62;0.00;0.00;0.62;4.70;4.10;;;25.00;36.10;;;;;;2271083;61;20463;-55
2022/06/08 06:39:52;0.00;0.00;0.62;0.00;0.00;0.62;5.20;4.50;;;25.00;36.90;;;;;;2272048;61;20909;-56
2022/06/08 06:42:48;0.00;0.00;0.62;0.00;0.00;0.62;4.90;4.40;;;25.00;36.30;;;;;;2271443;61;20827;-53
2022/06/08 06:45:48;0.00;0.00;0.62;0.00;0.00;0.62;4.77;4.37;;;25.00;36.40;;;;;;2272695;61;20405;-54
2022/06/08 06:48:48;0.00;0.00;0.62;0.00;0.00;0.62;4.40;4.00;;;25.00;36.40;;;;;;2271468;61;20373;-55
2022/06/08 06:51:34;0.00;0.00;0.62;0.00;0.00;0.62;4.27;3.87;;;25.00;36.40;;;;;;2271684;61;20404;-58
2022/06/08 06:54:19;0.00;0.00;0.62;0.00;0.00;0.62;4.67;4.27;;;25.00;36.30;;;;;;2272621;61;20408;-56
2022/06/08 06:57:06;0.00;0.00;0.62;0.00;0.00;0.62;4.50;3.90;;;25.00;36.30;;;;;;2271531;61;20398;-51
2022/06/08 06:59:53;0.00;0.00;0.62;0.00;0.00;0.62;4.90;4.47;;;25.00;36.20;;;;;;2272253;61;20902;-56
2022/06/08 07:02:39;0.00;0.00;0.62;0.00;0.00;0.62;6.63;4.90;;;25.00;36.10;;;;;;2271915;61;20401;-53
2022/06/08 07:05:32;0.00;0.00;0.62;0.00;0.00;0.62;6.00;4.77;;;25.10;36.20;;;;;;2271945;61;20367;-57
2022/06/08 07:08:18;0.00;0.00;0.62;0.00;0.00;0.62;4.50;4.10;;;25.10;36.20;;;;;;2272296;61;20358;-57
2022/06/08 07:14:14;0.00;0.00;0.62;0.00;0.00;0.62;4.63;3.93;;;25.10;36.10;;;;;;2272263;61;20458;-57
2022/06/08 07:16:58;0.00;0.00;0.62;0.00;0.00;0.62;4.63;4.23;;;25.10;36.10;;;;;;2272325;61;20532;-61
2022/06/08 07:19:48;0.00;0.00;0.62;0.00;0.00;0.62;4.70;4.30;;;25.10;36.00;;;;;;2271177;61;20439;-57
2022/06/08 07:22:33;0.00;0.00;0.62;0.00;0.00;0.62;4.40;4.00;;;25.10;36.00;;;;;;2271626;61;20406;-55
2022/06/08 07:25:19;0.00;0.00;0.62;0.00;0.00;0.62;6.13;5.37;;;25.10;36.00;;;;;;2271809;61;20365;-54
2022/06/08 07:28:06;0.00;0.00;0.62;0.00;0.00;0.62;8.90;3.90;;;25.10;36.00;;;;;;2272175;61;20381;-58
2022/06/08 07:30:52;0.00;0.00;0.62;0.00;0.00;0.62;4.33;3.93;;;25.20;36.10;;;;;;2272014;61;20366;-57
2022/06/08 07:33:37;0.00;0.00;0.62;0.00;0.00;0.62;4.90;4.50;;;25.20;36.10;;;;;;2271899;61;20428;-55
2022/06/08 07:36:23;0.00;0.00;0.62;0.00;0.00;0.62;5.33;4.43;;;25.10;36.00;;;;;;2272480;61;20378;-59
2022/06/08 07:39:09;0.00;0.00;0.62;0.00;0.00;0.62;4.70;4.30;;;25.20;36.00;;;;;;2272648;61;20385;-55
2022/06/08 07:41:55;0.00;0.00;0.62;0.00;0.00;0.62;4.40;4.00;;;25.20;35.90;;;;;;2271447;61;20499;-54
2022/06/08 07:44:40;0.00;0.00;0.62;0.00;0.00;0.62;4.00;3.70;;;25.20;35.70;;;;;;2272281;61;20797;-55
2022/06/08 07:47:24;0.00;0.00;0.62;0.00;0.00;0.62;4.40;4.00;;;25.20;35.60;;;;;;2272782;61;20837;-56
2022/06/08 07:50:09;0.00;0.00;0.62;0.00;0.00;0.62;4.43;3.90;;;25.20;35.60;;;;;;2272340;61;20470;-66
2022/06/08 07:52:56;0.00;0.00;0.62;0.00;0.00;0.62;4.10;3.70;;;25.20;35.40;;;;;;2272753;61;20415;-60
2022/06/08 07:55:40;0.00;0.00;0.62;0.00;0.00;0.62;3.00;2.70;;;25.20;35.40;;;;;;2271946;61;20496;-54
2022/06/08 07:58:26;0.00;0.00;0.62;0.00;0.00;0.62;3.10;2.90;;;25.20;35.20;;;;;;2272347;61;20379;-56
2022/06/08 08:01:11;0.00;0.00;0.62;0.00;0.00;0.62;3.30;3.00;;;25.30;35.20;;;;;;2271958;61;20474;-56
2022/06/08 08:03:55;0.00;0.00;0.62;0.00;0.00;0.62;3.23;2.93;;;25.30;35.00;;;;;;2271850;61;20899;-53
2022/06/08 08:06:40;0.00;0.00;0.62;0.00;0.00;0.62;3.20;2.80;;;25.30;34.70;;;;;;2272654;61;20813;-53
2022/06/08 08:09:27;0.00;0.00;0.62;0.00;0.00;0.62;3.10;2.90;;;25.30;34.60;;;;;;2272537;61;20370;-65
2022/06/08 08:12:12;0.00;0.00;0.62;0.00;0.00;0.62;3.03;2.73;;;25.30;34.50;;;;;;2272200;61;20358;-58
2022/06/08 08:14:57;0.00;0.00;0.62;0.00;0.00;0.62;3.13;2.83;;;25.40;34.50;;;;;;2272830;61;20369;-52
2022/06/08 08:17:42;0.00;0.00;0.62;0.00;0.00;0.62;2.60;2.40;;;25.40;34.30;;;;;;2271794;61;20394;-58
2022/06/08 08:20:28;0.00;0.00;0.62;0.00;0.00;0.62;3.20;2.90;;;25.40;35.00;;;;;;2272225;61;20362;-59
2022/06/08 08:23:13;0.00;0.00;0.62;0.00;0.00;0.62;3.33;3.03;;;25.40;34.30;;;;;;2272367;61;20405;-53
2022/06/08 08:26:00;0.00;0.00;0.62;0.00;0.00;0.62;3.30;2.30;;;25.40;34.20;;;;;;2272072;61;20401;-55
2022/06/08 08:28:45;0.00;0.00;0.62;0.00;0.00;0.62;3.20;2.90;;;25.40;34.10;;;;;;2272582;61;20886;-57
2022/06/08 08:31:31;0.00;0.00;0.62;0.00;0.00;0.62;3.03;2.73;;;25.40;34.10;;;;;;2272583;61;20370;-55
2022/06/08 08:34:16;0.00;0.00;0.62;0.00;0.00;0.62;3.60;2.67;;;25.40;34.10;;;;;;2271786;61;20773;-58
2022/06/08 08:37:01;0.00;0.00;0.62;0.00;0.00;0.62;3.30;3.00;;;25.40;34.10;;;;;;2272334;61;20858;-56
2022/06/08 08:39:46;0.00;0.00;0.62;0.00;0.00;0.62;3.20;2.70;;;25.50;34.10;;;;;;2271002;61;20386;-57
2022/06/08 08:42:34;0.00;0.00;0.62;0.00;0.00;0.62;3.80;3.17;;;25.50;34.10;;;;;;2271599;61;20370;-59
2022/06/08 08:45:19;0.00;0.00;0.62;0.00;0.00;0.62;2.90;2.60;;;25.60;34.10;;;;;;2272585;61;20408;-58
2022/06/08 08:48:09;0.00;0.00;0.62;0.00;0.00;0.62;3.10;2.90;;;25.60;34.00;;;;;;2271236;61;20400;-55
2022/06/08 08:51:04;0.00;0.00;0.62;0.00;0.00;0.62;4.23;2.53;;;25.60;34.00;;;;;;2267665;61;20492;-53
2022/06/08 08:54:18;0.00;0.00;0.62;0.00;0.00;0.62;4.10;3.10;;;25.70;34.00;;;;;;2272040;61;20404;-53
2022/06/08 08:57:18;0.00;0.00;0.62;0.00;0.00;0.62;3.50;2.17;;;25.60;33.90;;;;;;2271744;60;20389;-57
2022/06/08 09:00:18;0.00;0.00;0.62;0.00;0.00;0.62;2.80;2.37;;;25.70;34.00;;;;;;2267953;55;20497;-51
2022/06/08 09:03:17;0.00;0.00;0.62;0.00;0.00;0.62;2.80;2.60;;;25.70;33.90;;;;;;2263682;61;20421;-49
2022/06/08 09:06:14;0.00;0.00;0.62;0.00;0.00;0.62;4.77;2.63;;;25.70;33.90;;;;;;2264204;61;20502;-54
2022/06/08 09:09:03;0.00;0.00;0.62;0.00;0.00;0.62;2.93;2.60;;;25.70;33.80;;;;;;2263572;61;20864;-51
2022/06/08 09:11:48;0.00;0.00;0.62;0.00;0.00;0.62;3.97;3.23;;;25.80;33.90;;;;;;2264369;61;20799;-49
2022/06/08 09:14:50;0.00;0.00;0.62;0.00;0.00;0.62;3.57;3.27;;;25.80;33.80;;;;;;2264313;61;20380;-54
2022/06/08 09:17:38;0.00;0.00;0.62;0.00;0.00;0.62;2.50;2.30;;;25.80;33.70;;;;;;2264890;61;20390;-51
2022/06/08 09:20:30;0.00;0.00;0.62;0.00;0.00;0.62;4.13;2.73;;;25.80;33.60;;;;;;2265038;61;21046;-60
2022/06/08 09:23:36;0.00;0.00;0.62;0.00;0.00;0.62;3.10;2.87;;;25.80;33.60;;;;;;2263958;61;20367;-54
2022/06/08 09:26:35;0.00;0.00;0.62;0.00;0.00;0.62;3.10;2.80;;;25.90;33.60;;;;;;2264026;61;20360;-58
2022/06/08 09:29:26;0.00;0.00;0.62;0.00;0.00;0.62;3.13;2.67;;;25.90;33.60;;;;;;2264051;61;20375;-60
2022/06/08 09:32:27;0.00;0.00;0.62;0.00;0.00;0.62;2.90;2.70;;;25.90;33.50;;;;;;2261760;61;20906;-60
2022/06/08 09:35:26;0.00;0.00;0.62;0.00;0.00;0.62;3.73;3.10;;;25.90;33.30;;;;;;2264118;61;20896;-54
2022/06/08 09:38:14;0.00;0.00;0.62;0.00;0.00;0.62;2.97;2.77;;;26.00;33.40;;;;;;2262326;61;20483;-52
2022/06/08 09:41:13;0.00;0.00;0.62;0.00;0.00;0.62;3.30;3.00;;;26.00;33.30;;;;;;2264136;61;20426;-59
2022/06/08 09:44:15;0.00;0.00;0.62;0.00;0.00;0.62;3.60;3.30;;;26.00;33.20;;;;;;2264110;61;20991;-56
2022/06/08 09:53:45;0.00;0.00;0.62;0.00;0.00;0.62;2.60;2.33;;;26.10;32.90;;;;;;2263856;61;20368;-50
2022/06/08 09:56:44;0.00;0.00;0.62;0.00;0.00;0.62;3.17;2.87;;;26.10;32.80;;;;;;2264678;61;20434;-59
2022/06/08 09:59:46;0.00;0.00;0.62;0.00;0.00;0.62;3.00;2.80;;;26.10;32.80;;;;;;2263845;61;20392;-59
2022/06/08 10:02:45;0.00;0.00;0.62;0.00;0.00;0.62;2.93;2.73;;;26.20;32.80;;;;;;2263781;61;20367;-61
2022/06/08 10:05:41;0.00;0.00;0.62;0.00;0.00;0.62;9.33;2.83;;;26.20;32.80;;;;;;2264468;61;20808;-50
2022/06/08 10:08:33;0.00;0.00;0.62;0.00;0.00;0.62;2.57;2.37;;;26.20;32.70;;;;;;2264498;61;20941;-56
2022/06/08 10:11:34;0.00;0.00;0.62;0.00;0.00;0.62;3.07;2.80;;;26.20;33.30;;;;;;2264652;61;20427;-51
2022/06/08 10:14:28;0.00;0.00;0.62;0.00;0.00;0.62;2.63;2.43;;;26.30;32.70;;;;;;2263398;61;20403;-52
2022/06/08 10:17:17;0.00;0.00;0.62;0.00;0.00;0.62;2.90;2.67;;;26.30;32.60;;;;;;2263843;61;20411;-52
2022/06/08 10:20:13;0.00;0.00;0.62;0.00;0.00;0.62;2.80;2.30;;;26.30;32.60;;;;;;2263810;61;20392;-53
2022/06/08 10:23:10;0.00;0.00;0.62;0.00;0.00;0.62;2.93;2.60;;;26.30;32.60;;;;;;2264246;61;20403;-55
2022/06/08 10:26:07;0.00;0.00;0.62;0.00;0.00;0.62;2.37;2.17;;;26.30;32.40;;;;;;2264487;61;20457;-53
2022/06/08 10:28:57;0.00;0.00;0.62;0.00;0.00;0.62;3.77;2.50;;;26.30;32.40;;;;;;2263435;61;20430;-55
2022/06/08 10:31:50;0.00;0.00;0.62;0.00;0.00;0.62;2.63;2.30;;;26.40;32.30;;;;;;2264380;61;20941;-50
2022/06/08 10:34:36;0.00;0.00;0.62;0.00;0.00;0.62;2.90;2.57;;;26.40;32.30;;;;;;2264944;61;20403;-49
2022/06/08 10:37:28;0.00;0.00;0.62;0.00;0.00;0.62;2.77;2.57;;;26.40;31.80;;;;;;2264062;61;20399;-53
2022/06/08 10:40:21;0.00;0.00;0.62;0.00;0.00;0.62;5.00;3.50;;;26.50;31.70;;;;;;2265003;61;20387;-60
2022/06/08 10:43:06;0.00;0.00;0.62;0.00;0.00;0.62;2.87;2.40;;;26.50;31.70;;;;;;2264267;61;20899;-58
2022/06/08 10:45:57;0.00;0.00;0.62;0.00;0.00;0.62;3.17;2.87;;;26.50;31.50;;;;;;2264944;61;20392;-56
2022/06/08 10:48:49;0.00;0.00;0.62;0.00;0.00;0.62;2.80;2.47;;;26.50;31.40;;;;;;2267615;61;20355;-58
2022/06/08 10:51:39;0.00;0.00;0.62;0.00;0.00;0.62;2.90;2.60;;;26.60;31.70;;;;;;2267544;61;20815;-60
2022/06/08 10:54:55;0.00;0.00;0.62;0.00;0.00;0.62;2.50;2.30;;;26.60;31.50;;;;;;2268665;61;20359;-60
2022/06/08 10:58:06;0.00;0.00;0.62;0.00;0.00;0.62;2.40;2.20;;;26.60;31.50;;;;;;2268339;61;20417;-58
2022/06/08 11:01:01;0.00;0.00;0.62;0.00;0.00;0.62;3.00;2.63;;;26.70;31.20;;;;;;2268081;61;20394;-52
2022/06/08 11:03:58;0.00;0.00;0.62;0.00;0.00;0.62;2.77;2.57;;;26.70;31.20;;;;;;2268151;61;20759;-59
2022/06/08 11:06:59;0.00;0.00;0.62;0.00;0.00;0.62;2.93;2.63;;;26.70;31.20;;;;;;2267616;61;20367;-53
2022/06/08 11:09:54;0.00;0.00;0.62;0.00;0.00;0.62;3.20;2.70;;;26.80;31.20;;;;;;2268683;61;20382;-54
2022/06/08 11:13:04;0.00;0.00;0.62;0.00;0.00;0.62;2.77;2.53;;;26.80;31.20;;;;;;2267842;61;20395;-53
2022/06/08 11:15:55;0.00;0.00;0.62;0.00;0.00;0.62;2.57;2.30;;;26.80;31.20;;;;;;2268906;61;20777;-53
2022/06/08 11:18:46;0.00;0.00;0.62;0.00;0.00;0.62;2.73;2.53;;;26.80;31.20;;;;;;2268260;61;20414;-52
2022/06/08 11:21:42;0.00;0.00;0.62;0.00;0.00;0.62;2.90;2.60;;;26.90;31.30;;;;;;2267389;61;20573;-51
2022/06/08 11:24:31;0.00;0.00;0.62;0.00;0.00;0.62;3.83;2.10;;;26.90;31.30;;;;;;2268782;61;20355;-51
2022/06/08 11:27:31;0.00;0.00;0.62;0.00;0.00;0.62;2.30;1.80;;;26.90;31.30;;;;;;2268541;61;20863;-53